Terminal Aerodrome Forecast
Issued by NWS Knoxville/Tri Cities, TN

Home | Current Version | Previous Version | Text Only | Print | Product List | Glossary On
Versions: 1 2 3 4 5 6 7 8 9 10 11 12 13
000
FTUS44 KMRX 251839 AAA
TAFTYS
TAF AMD
KTYS 251839Z 2519/2618 24009KT P6SM BKN150
     FM260100 00000KT P6SM SCT150
     FM261400 23008KT P6SM SCT060 BKN150=

USA.gov is the U.S. government's official web portal to all federal, state and local government web resources and services.